createdAt,value
2018-09-26T00:01:16.843Z,0.00
2018-09-26T00:02:16.707Z,0.00
2018-09-26T00:03:16.820Z,0.00
2018-09-26T00:04:19.381Z,0.00
2018-09-26T00:05:18.444Z,0.00
2018-09-26T00:06:23.466Z,0.00
2018-09-26T00:07:17.426Z,0.00
2018-09-26T00:09:16.733Z,0.00
2018-09-26T00:10:16.640Z,0.00
2018-09-26T00:11:17.427Z,0.00
2018-09-26T00:12:18.420Z,0.00
2018-09-26T00:13:16.654Z,0.00
2018-09-26T00:14:17.488Z,0.00
2018-09-26T00:15:16.538Z,0.00
2018-09-26T00:16:16.631Z,0.00
2018-09-26T00:17:16.538Z,0.00
2018-09-26T00:18:44.384Z,0.00
2018-09-26T00:19:16.419Z,0.00
2018-09-26T00:20:17.309Z,0.00
2018-09-26T00:21:18.341Z,0.00
2018-09-26T00:22:17.246Z,0.00
2018-09-26T00:23:19.339Z,0.00
2018-09-26T00:24:19.436Z,0.00
2018-09-26T00:25:17.380Z,0.00
2018-09-26T00:26:16.434Z,0.00
2018-09-26T00:27:17.009Z,0.00
2018-09-26T00:28:17.011Z,0.00
2018-09-26T00:29:20.757Z,0.00
2018-09-26T00:30:16.515Z,0.00
2018-09-26T00:31:16.983Z,0.00
2018-09-26T00:32:16.337Z,0.00
2018-09-26T00:33:16.383Z,0.00
2018-09-26T00:34:16.956Z,0.00
2018-09-26T00:35:30.995Z,0.00
2018-09-26T00:36:16.388Z,0.00
2018-09-26T00:37:16.908Z,0.00
2018-09-26T00:38:18.849Z,0.00
2018-09-26T00:39:16.950Z,0.00
2018-09-26T00:40:16.967Z,0.00
2018-09-26T00:41:16.856Z,0.00
2018-09-26T00:42:16.304Z,0.00
2018-09-26T00:43:16.279Z,0.00
2018-09-26T00:44:16.148Z,0.00
2018-09-26T00:45:16.878Z,0.00
2018-09-26T00:46:16.046Z,0.00
2018-09-26T00:47:17.943Z,0.00
2018-09-26T00:48:20.877Z,0.00
2018-09-26T00:49:16.020Z,0.00
2018-09-26T00:50:16.751Z,0.00
2018-09-26T00:51:15.989Z,0.00
2018-09-26T00:54:16.153Z,0.00
2018-09-26T00:55:16.124Z,0.00
2018-09-26T00:56:17.951Z,0.00
2018-09-26T00:58:16.046Z,0.00
2018-09-26T00:59:15.930Z,0.00
2018-09-26T01:00:16.024Z,0.00
2018-09-26T01:01:15.903Z,0.00
2018-09-26T01:02:18.976Z,0.00
2018-09-26T01:03:15.990Z,0.00
2018-09-26T01:06:17.421Z,0.00
2018-09-26T01:07:37.014Z,0.00
2018-09-26T01:08:17.374Z,0.00
2018-09-26T01:09:16.193Z,0.00
2018-09-26T01:10:18.521Z,0.00
2018-09-26T01:12:15.757Z,0.00
2018-09-26T01:13:15.774Z,0.00
2018-09-26T01:15:18.288Z,0.00
2018-09-26T01:16:15.824Z,0.00
2018-09-26T01:17:16.440Z,0.00
2018-09-26T01:18:15.831Z,0.00
2018-09-26T01:19:18.479Z,0.00
2018-09-26T01:20:15.787Z,0.00
2018-09-26T01:21:17.422Z,0.00
2018-09-26T01:22:18.449Z,0.00
2018-09-26T01:23:16.442Z,0.00
2018-09-26T01:24:15.642Z,0.00
2018-09-26T01:25:15.552Z,0.00
2018-09-26T01:26:15.576Z,0.00
2018-09-26T01:27:30.441Z,0.00
2018-09-26T01:28:33.535Z,0.00
2018-09-26T01:30:17.426Z,0.00
2018-09-26T01:31:15.517Z,0.00
2018-09-26T01:32:15.565Z,0.00
2018-09-26T01:34:16.518Z,0.00
2018-09-26T01:35:15.469Z,0.00
2018-09-26T01:36:17.427Z,0.00
2018-09-26T01:37:22.407Z,0.00
2018-09-26T01:38:15.522Z,0.00
2018-09-26T01:39:15.555Z,0.00
2018-09-26T01:40:15.865Z,0.00
2018-09-26T01:42:15.398Z,0.00
2018-09-26T01:43:15.415Z,0.00
2018-09-26T01:44:17.010Z,0.00
2018-09-26T01:45:15.259Z,0.00
2018-09-26T01:46:15.413Z,0.00
2018-09-26T01:47:15.408Z,0.00
2018-09-26T01:48:38.955Z,0.00
2018-09-26T01:49:15.355Z,0.00
2018-09-26T01:50:15.287Z,0.00
2018-09-26T01:51:15.255Z,0.00
2018-09-26T01:52:15.931Z,0.00
2018-09-26T01:53:15.265Z,0.00
2018-09-26T01:54:15.253Z,0.00
2018-09-26T01:57:37.623Z,0.00
2018-09-26T01:58:35.674Z,0.00
2018-09-26T02:01:00.571Z,0.00
2018-09-26T02:01:54.558Z,0.00
2018-09-26T02:03:54.535Z,0.00
2018-09-26T02:04:45.972Z,0.00
2018-09-26T02:05:46.008Z,0.00
2018-09-26T02:06:45.867Z,0.00
2018-09-26T02:07:48.623Z,0.00
2018-09-26T02:08:45.843Z,0.00
2018-09-26T02:09:45.885Z,0.00
2018-09-26T02:11:06.961Z,0.00
2018-09-26T02:11:47.427Z,0.00
2018-09-26T02:12:46.600Z,0.00
2018-09-26T02:13:50.510Z,0.00
2018-09-26T02:14:45.988Z,0.00
2018-09-26T02:16:45.933Z,0.00
2018-09-26T02:18:45.802Z,0.00
2018-09-26T02:19:46.432Z,0.00
2018-09-26T02:20:47.625Z,0.00
2018-09-26T02:21:45.781Z,0.00
2018-09-26T02:22:46.473Z,0.00
2018-09-26T02:23:52.554Z,0.00
2018-09-26T02:24:45.665Z,0.00
2018-09-26T02:25:46.616Z,0.00
2018-09-26T02:26:45.778Z,0.00
2018-09-26T02:27:45.743Z,0.00
2018-09-26T02:28:45.680Z,0.00
2018-09-26T02:29:48.577Z,0.00
2018-09-26T02:30:48.503Z,0.00
2018-09-26T02:32:06.691Z,0.00
2018-09-26T02:32:48.059Z,0.00
2018-09-26T02:33:45.687Z,0.00
2018-09-26T02:34:47.426Z,0.00
2018-09-26T02:35:46.050Z,0.00
2018-09-26T02:36:45.672Z,0.00
2018-09-26T02:37:45.643Z,0.00
2018-09-26T02:39:07.069Z,0.00
2018-09-26T02:39:49.934Z,0.00
2018-09-26T02:40:50.046Z,0.00
2018-09-26T02:42:06.531Z,0.00
2018-09-26T02:42:46.133Z,0.00
2018-09-26T02:44:45.491Z,0.00
2018-09-26T02:45:45.527Z,0.00
2018-09-26T02:46:45.538Z,0.00
2018-09-26T02:47:45.460Z,0.00
2018-09-26T02:48:45.454Z,0.00
2018-09-26T02:49:46.146Z,0.00
2018-09-26T02:51:45.481Z,0.00
2018-09-26T02:53:45.919Z,0.00
2018-09-26T02:56:06.900Z,0.00
2018-09-26T02:57:07.441Z,0.00
2018-09-26T02:59:00.281Z,0.00
2018-09-26T03:00:00.864Z,0.00
2018-09-26T03:03:04.171Z,0.00
2018-09-26T03:03:53.594Z,0.00
2018-09-26T03:05:08.113Z,0.00
2018-09-26T03:05:54.147Z,0.00
2018-09-26T03:09:08.027Z,0.00
2018-09-26T03:09:56.109Z,0.00
2018-09-26T03:10:53.480Z,0.00
2018-09-26T03:11:53.405Z,0.00
2018-09-26T03:12:53.456Z,0.00
2018-09-26T03:13:53.397Z,0.00
2018-09-26T03:14:53.430Z,0.00
2018-09-26T03:15:56.103Z,0.00
2018-09-26T03:17:14.454Z,0.00
2018-09-26T03:17:53.820Z,0.00
2018-09-26T03:18:54.137Z,0.00
2018-09-26T03:19:58.066Z,0.00
2018-09-26T03:20:53.360Z,0.00
2018-09-26T03:23:50.168Z,0.00
2018-09-26T03:24:44.633Z,0.00
2018-09-26T03:27:13.482Z,0.00
2018-09-26T03:29:13.120Z,0.00
2018-09-26T03:30:15.597Z,0.00
2018-09-26T03:32:15.745Z,0.00
2018-09-26T03:33:13.046Z,0.00
2018-09-26T03:34:12.938Z,0.00
2018-09-26T03:35:12.857Z,0.00
2018-09-26T03:36:12.934Z,0.00
2018-09-26T03:38:27.723Z,0.00
2018-09-26T03:39:14.581Z,0.00
2018-09-26T03:40:13.718Z,0.00
2018-09-26T03:42:13.003Z,0.00
2018-09-26T03:43:15.592Z,0.00
2018-09-26T03:44:13.699Z,0.00
2018-09-26T03:45:12.748Z,0.00
2018-09-26T03:46:12.789Z,0.00
2018-09-26T03:47:12.788Z,0.00
2018-09-26T03:48:12.541Z,4.00
2018-09-26T03:49:13.109Z,0.00
2018-09-26T03:50:12.635Z,4.00
2018-09-26T03:51:13.506Z,4.00
2018-09-26T03:52:13.653Z,0.00
2018-09-26T03:53:12.708Z,4.00
2018-09-26T03:54:12.525Z,4.00
2018-09-26T03:56:13.167Z,4.00
2018-09-26T03:57:12.419Z,4.00
2018-09-26T03:58:12.489Z,4.00
2018-09-26T03:59:13.166Z,8.00
2018-09-26T04:00:12.360Z,8.00
2018-09-26T04:01:12.462Z,8.00
2018-09-26T04:02:13.214Z,8.00
2018-09-26T04:03:12.608Z,12.00
2018-09-26T04:04:13.060Z,12.00
2018-09-26T04:05:12.558Z,8.00
2018-09-26T04:06:13.901Z,12.00
2018-09-26T04:07:12.537Z,12.00
2018-09-26T04:08:13.188Z,16.00
2018-09-26T04:09:12.490Z,16.00
2018-09-26T04:10:12.450Z,20.00
2018-09-26T04:11:15.112Z,16.00
2018-09-26T04:12:12.304Z,20.00
2018-09-26T04:13:15.098Z,20.00
2018-09-26T04:14:12.944Z,16.00
2018-09-26T04:15:14.163Z,16.00
2018-09-26T04:16:12.329Z,20.00
2018-09-26T04:17:12.328Z,20.00
2018-09-26T04:18:14.112Z,20.00
2018-09-26T04:19:12.359Z,20.00
2018-09-26T04:20:12.353Z,28.00
2018-09-26T04:22:12.153Z,32.00
2018-09-26T04:23:12.240Z,32.00
2018-09-26T04:24:12.316Z,36.00
2018-09-26T04:25:17.109Z,44.00
2018-09-26T04:26:12.374Z,48.00
2018-09-26T04:27:12.282Z,56.00
2018-09-26T04:28:13.023Z,60.00
2018-09-26T04:29:13.179Z,60.00
2018-09-26T04:30:12.163Z,56.00
2018-09-26T04:31:12.308Z,52.00
2018-09-26T04:32:14.299Z,60.00
2018-09-26T04:33:12.420Z,52.00
2018-09-26T04:34:12.279Z,60.00
2018-09-26T04:35:12.023Z,68.00
2018-09-26T04:36:12.108Z,80.00
2018-09-26T04:37:14.593Z,92.00
2018-09-26T04:38:22.597Z,92.00
2018-09-26T04:39:12.600Z,88.00
2018-09-26T04:40:12.791Z,108.00
2018-09-26T04:41:12.505Z,128.00
2018-09-26T04:42:13.702Z,168.00
2018-09-26T04:43:11.954Z,152.00
2018-09-26T04:44:12.000Z,140.00
2018-09-26T04:45:11.874Z,172.00
2018-09-26T04:46:12.081Z,216.00
2018-09-26T04:47:11.967Z,260.00
2018-09-26T04:48:12.039Z,256.00
2018-09-26T04:49:11.925Z,280.00
2018-09-26T04:50:11.799Z,332.00
2018-09-26T04:51:11.874Z,360.00
2018-09-26T04:52:12.601Z,388.00
2018-09-26T04:53:11.951Z,328.00
2018-09-26T04:54:12.618Z,336.00
2018-09-26T04:55:11.972Z,332.00
2018-09-26T04:56:11.774Z,320.00
2018-09-26T04:57:11.924Z,312.00
2018-09-26T04:58:11.947Z,260.00
2018-09-26T04:59:11.665Z,284.00
2018-09-26T05:00:11.773Z,232.00
2018-09-26T05:01:11.678Z,220.00
2018-09-26T05:02:11.844Z,220.00
2018-09-26T05:03:11.799Z,236.00
2018-09-26T05:04:11.756Z,196.00
2018-09-26T05:05:11.766Z,204.00
2018-09-26T05:06:12.798Z,184.00
2018-09-26T05:07:11.654Z,260.00
2018-09-26T05:08:11.748Z,300.00
2018-09-26T05:10:11.620Z,324.00
2018-09-26T05:11:11.701Z,280.00
2018-09-26T05:12:11.777Z,348.00
2018-09-26T05:13:11.721Z,336.00
2018-09-26T05:14:13.038Z,368.00
2018-09-26T05:15:11.668Z,368.00
2018-09-26T05:16:11.490Z,316.00
2018-09-26T05:17:11.708Z,400.00
2018-09-26T05:19:12.134Z,300.00
2018-09-26T05:20:11.470Z,352.00
2018-09-26T05:21:12.990Z,328.00
2018-09-26T05:22:16.008Z,440.00
2018-09-26T05:23:11.548Z,452.00
2018-09-26T05:24:14.174Z,416.00
2018-09-26T05:25:11.427Z,520.00
2018-09-26T05:26:12.090Z,656.00
2018-09-26T05:27:11.226Z,672.00
2018-09-26T05:28:11.379Z,740.00
2018-09-26T05:29:13.214Z,712.00
2018-09-26T05:30:12.255Z,692.00
2018-09-26T05:31:11.439Z,900.00
2018-09-26T05:32:12.091Z,916.00
2018-09-26T05:33:12.142Z,788.00
2018-09-26T05:34:11.534Z,624.00
2018-09-26T05:35:13.043Z,572.00
2018-09-26T05:36:13.215Z,452.00
2018-09-26T05:37:11.365Z,368.00
2018-09-26T05:38:13.121Z,400.00
2018-09-26T05:39:11.151Z,536.00
2018-09-26T05:40:11.211Z,780.00
2018-09-26T05:41:14.234Z,900.00
2018-09-26T05:42:12.221Z,1100.00
2018-09-26T05:43:11.223Z,1164.00
2018-09-26T05:45:11.360Z,1232.00
2018-09-26T05:46:22.111Z,1040.00
2018-09-26T05:47:11.191Z,1096.00
2018-09-26T05:48:12.176Z,756.00
2018-09-26T05:49:11.096Z,636.00
2018-09-26T05:50:11.272Z,556.00
2018-09-26T05:51:11.049Z,412.00
2018-09-26T05:52:11.705Z,400.00
2018-09-26T05:53:11.240Z,372.00
2018-09-26T05:55:21.608Z,348.00
2018-09-26T05:56:11.902Z,308.00
2018-09-26T05:57:11.216Z,344.00
2018-09-26T05:58:11.181Z,456.00
2018-09-26T05:59:11.182Z,468.00
2018-09-26T06:00:11.677Z,444.00
2018-09-26T06:01:11.097Z,384.00
2018-09-26T06:02:10.959Z,492.00
2018-09-26T06:03:12.528Z,536.00
2018-09-26T06:04:11.500Z,588.00
2018-09-26T06:05:11.132Z,436.00
2018-09-26T06:06:10.921Z,440.00
2018-09-26T06:07:11.122Z,548.00
2018-09-26T06:08:10.924Z,532.00
2018-09-26T06:09:11.648Z,552.00
2018-09-26T06:10:11.030Z,772.00
2018-09-26T06:11:11.037Z,940.00
2018-09-26T06:12:12.729Z,808.00
2018-09-26T06:13:10.838Z,652.00
2018-09-26T06:14:10.772Z,684.00
2018-09-26T06:15:10.866Z,612.00
2018-09-26T06:16:10.718Z,720.00
2018-09-26T06:17:11.011Z,788.00
2018-09-26T06:18:13.110Z,900.00
2018-09-26T06:20:10.852Z,1032.00
2018-09-26T06:21:10.928Z,888.00
2018-09-26T06:22:10.737Z,784.00
2018-09-26T06:24:10.698Z,852.00
2018-09-26T06:25:10.704Z,876.00
2018-09-26T06:26:10.694Z,692.00
2018-09-26T06:27:10.534Z,624.00
2018-09-26T06:28:10.849Z,648.00
2018-09-26T06:30:10.738Z,636.00
2018-09-26T06:31:10.786Z,560.00
2018-09-26T06:32:10.596Z,720.00
2018-09-26T06:33:10.751Z,672.00
2018-09-26T06:34:10.752Z,760.00
2018-09-26T06:35:10.561Z,704.00
2018-09-26T06:36:11.066Z,1056.00
2018-09-26T06:37:10.626Z,900.00
2018-09-26T06:38:10.626Z,756.00
2018-09-26T06:39:10.573Z,996.00
2018-09-26T06:40:10.530Z,996.00
2018-09-26T06:41:10.437Z,684.00
2018-09-26T06:42:10.332Z,636.00
2018-09-26T06:43:11.095Z,864.00
2018-09-26T06:44:15.105Z,772.00
2018-09-26T06:45:10.503Z,584.00
2018-09-26T06:46:10.418Z,668.00
2018-09-26T06:47:10.280Z,972.00
2018-09-26T06:48:10.277Z,748.00
2018-09-26T06:49:11.013Z,636.00
2018-09-26T06:50:10.514Z,668.00
2018-09-26T06:51:11.155Z,636.00
2018-09-26T06:52:10.214Z,752.00
2018-09-26T06:53:11.141Z,628.00
2018-09-26T06:54:10.815Z,584.00
2018-09-26T06:55:10.405Z,684.00
2018-09-26T06:56:11.134Z,1040.00
2018-09-26T06:57:10.369Z,676.00
2018-09-26T06:58:10.402Z,556.00
2018-09-26T06:59:31.324Z,632.00
2018-09-26T07:00:10.867Z,604.00
2018-09-26T07:01:10.202Z,716.00
2018-09-26T07:02:10.152Z,800.00
2018-09-26T07:03:10.529Z,708.00
2018-09-26T07:04:10.235Z,672.00
2018-09-26T07:05:11.228Z,720.00
2018-09-26T07:06:10.283Z,532.00
2018-09-26T07:07:10.175Z,548.00
2018-09-26T07:08:10.120Z,632.00
2018-09-26T07:10:10.087Z,792.00
2018-09-26T07:11:11.169Z,796.00
2018-09-26T07:12:11.295Z,776.00
2018-09-26T07:13:10.511Z,980.00
2018-09-26T07:14:10.090Z,1020.00
2018-09-26T07:15:10.051Z,1108.00
2018-09-26T07:16:10.279Z,1076.00
2018-09-26T07:17:11.715Z,1336.00
2018-09-26T07:18:10.109Z,1268.00
2018-09-26T07:19:24.723Z,1328.00
2018-09-26T07:20:10.219Z,1344.00
2018-09-26T07:21:11.994Z,1356.00
2018-09-26T07:22:10.741Z,1280.00
2018-09-26T07:23:10.119Z,1544.00
2018-09-26T07:24:14.659Z,1624.00
2018-09-26T07:26:10.100Z,1196.00
